Terminal Aerodrome Forecast
Issued by NWS

Current Version | Previous Version | Text Only | Print | Product List | Glossary Off
Versions: 1 2 3 4 5 6 7 8 9 10 11 12 13 14 15 16 17 18 19 20 21 22 23 24 25

496
FTUS41 KRLX 181441 AAA
TAFCKB
TAF AMD
KCKB 181441Z 1815/1912 20003KT P6SM SKC
     FM181700 23005KT P6SM BKN060
     FM190200 18004KT P6SM -SHRA BKN035
     FM190600 26011G18KT P6SM -SHRA OVC025
     FM190900 25011G20KT P6SM -SHRA BKN015=

USA.gov is the U.S. government's official web portal to all federal, state and local government web resources and services.